Time;durP1;ratioP1;P1;durP2;ratioP2;P2;SDS_P1;SDS_P2;PMS_P1;PMS_P2;Temp;Humidity;BMP_temperature;BMP_pressure;BME280_temperature;BME280_humidity;BME280_pressure;Samples;Min_cycle;Max_cycle;Signal;HPM_P1;HPM_P2
2021/12/21 00:00:15;;;;;;;16.08;8.73;;;-3.80;99.90;;;;;;5068128;28;20048;-34
2021/12/21 00:02:42;;;;;;;17.73;9.30;;;-3.30;99.90;;;;;;5068914;28;20190;-34
2021/12/21 00:05:15;;;;;;;17.90;8.18;;;-3.80;99.90;;;;;;5069277;28;20052;-34
2021/12/21 00:07:42;;;;;;;16.50;8.27;;;-3.90;99.90;;;;;;5069268;28;20418;-34
2021/12/21 00:10:08;;;;;;;15.52;7.28;;;-3.90;99.90;;;;;;5068939;28;20836;-33
2021/12/21 00:12:35;;;;;;;12.95;6.40;;;-3.90;99.90;;;;;;5068663;28;20048;-34
2021/12/21 00:15:17;;;;;;;13.70;7.82;;;-3.90;99.90;;;;;;5069070;28;20112;-34
2021/12/21 00:17:50;;;;;;;14.20;7.28;;;-3.90;99.90;;;;;;5069134;28;20158;-34
2021/12/21 00:25:14;;;;;;;19.33;6.70;;;-4.10;99.90;;;;;;5068904;28;20044;-33
2021/12/21 00:27:40;;;;;;;15.90;6.53;;;-4.10;99.90;;;;;;5069213;28;20093;-34
2021/12/21 00:30:07;;;;;;;13.57;5.90;;;-4.10;99.90;;;;;;5068921;28;20113;-34
2021/12/21 00:32:33;;;;;;;15.82;6.35;;;-4.20;99.90;;;;;;5069117;28;20044;-34
2021/12/21 00:34:58;;;;;;;13.77;5.90;;;-4.10;99.90;;;;;;5069210;28;20075;-34
2021/12/21 00:37:27;;;;;;;13.50;6.20;;;-4.20;99.90;;;;;;5068895;28;20044;-34
2021/12/21 00:39:53;;;;;;;17.00;6.88;;;-4.20;99.90;;;;;;5068995;28;20048;-33
2021/12/21 00:42:18;;;;;;;13.63;7.38;;;-4.20;99.90;;;;;;5068931;28;20045;-33
2021/12/21 00:44:44;;;;;;;17.20;6.38;;;-4.10;99.90;;;;;;5069087;28;20067;-34
2021/12/21 00:47:10;;;;;;;14.13;6.07;;;-4.10;99.90;;;;;;5068571;28;20489;-33
2021/12/21 00:49:37;;;;;;;14.32;8.02;;;-4.10;99.90;;;;;;5069152;28;20056;-33
2021/12/21 00:52:03;;;;;;;11.95;6.25;;;-4.20;99.90;;;;;;5068339;28;20036;-34
2021/12/21 00:54:29;;;;;;;10.85;6.20;;;-4.20;99.90;;;;;;5068569;28;20048;-34
2021/12/21 00:56:54;;;;;;;17.27;7.22;;;-4.20;99.90;;;;;;5069024;28;20037;-34
2021/12/21 00:59:20;;;;;;;12.82;6.15;;;-4.20;99.90;;;;;;5068816;28;20516;-34
2021/12/21 01:01:46;;;;;;;13.00;6.72;;;-4.20;99.90;;;;;;5066880;28;20375;-34
2021/12/21 01:04:23;;;;;;;15.50;5.55;;;-3.90;99.90;;;;;;5068927;28;20040;-34
2021/12/21 01:10:05;;;;;;;10.35;4.28;;;-4.20;99.90;;;;;;5068679;28;20110;-34
2021/12/21 01:17:47;;;;;;;11.45;3.50;;;-4.30;99.90;;;;;;5068168;28;20054;-34
2021/12/21 01:20:25;;;;;;;5.65;3.15;;;-4.30;99.90;;;;;;5068113;28;20048;-34
2021/12/21 01:26:04;;;;;;;8.40;3.30;;;-4.30;99.90;;;;;;5068147;28;20056;-34
2021/12/21 01:36:02;;;;;;;9.55;2.85;;;-4.50;99.90;;;;;;5068304;28;20615;-34
2021/12/21 01:38:47;;;;;;;9.13;3.38;;;-4.50;99.90;;;;;;5068290;28;20481;-34
2021/12/21 01:41:39;;;;;;;6.32;3.30;;;-4.60;99.90;;;;;;5068197;28;20512;-34
2021/12/21 01:52:08;;;;;;;6.70;2.65;;;-4.70;99.90;;;;;;5068782;28;20410;-34
2021/12/21 01:54:35;;;;;;;8.43;3.22;;;-4.70;99.90;;;;;;5068221;28;20044;-34
2021/12/21 01:57:01;;;;;;;12.35;4.13;;;-4.70;99.90;;;;;;5068354;28;20043;-34
2021/12/21 01:59:27;;;;;;;6.85;3.20;;;-4.70;99.90;;;;;;5068060;28;20036;-34
2021/12/21 02:01:53;;;;;;;13.48;3.00;;;-4.70;99.90;;;;;;5066293;28;20044;-34
2021/12/21 02:04:19;;;;;;;8.18;2.58;;;-4.70;99.90;;;;;;5068135;28;20141;-34
2021/12/21 02:06:45;;;;;;;8.32;3.10;;;-4.70;99.90;;;;;;5072053;28;20078;-34
2021/12/21 02:09:11;;;;;;;7.05;2.78;;;-4.70;99.90;;;;;;5071900;28;20121;-34
2021/12/21 02:11:37;;;;;;;6.97;2.38;;;-4.70;99.90;;;;;;5071727;28;20479;-34
2021/12/21 02:14:05;;;;;;;9.35;2.67;;;-4.70;99.90;;;;;;5070299;28;20414;-34
2021/12/21 02:16:41;;;;;;;7.43;2.70;;;-4.70;99.90;;;;;;5071786;28;20048;-34
2021/12/21 02:19:19;;;;;;;6.18;2.65;;;-4.70;99.90;;;;;;5070363;28;20049;-34
2021/12/21 02:21:50;;;;;;;10.63;3.00;;;-4.70;99.90;;;;;;5070314;28;20186;-34
2021/12/21 02:24:20;;;;;;;10.13;2.70;;;-4.80;99.90;;;;;;5071389;28;20131;-34
2021/12/21 02:31:42;;;;;;;9.07;3.00;;;-4.80;99.90;;;;;;5071066;28;20044;-34
2021/12/21 02:34:08;;;;;;;8.65;2.90;;;-4.90;99.90;;;;;;5071164;28;20040;-34
2021/12/21 02:36:34;;;;;;;6.88;2.78;;;-4.90;99.90;;;;;;5071138;28;20067;-34
2021/12/21 02:39:00;;;;;;;9.30;2.55;;;-4.90;99.90;;;;;;5071126;28;20127;-33
2021/12/21 02:41:26;;;;;;;9.23;3.60;;;-4.80;99.90;;;;;;5070949;28;20037;-34
2021/12/21 02:43:54;;;;;;;9.73;3.50;;;-4.90;99.90;;;;;;5070957;28;20048;-34
2021/12/21 02:46:20;;;;;;;12.00;3.78;;;-4.90;99.90;;;;;;5070995;28;20100;-34
2021/12/21 02:48:46;;;;;;;13.60;3.67;;;-4.90;99.90;;;;;;5070918;28;20040;-34
2021/12/21 02:51:12;;;;;;;9.50;2.80;;;-4.90;99.90;;;;;;5070989;28;20498;-34
2021/12/21 02:53:38;;;;;;;7.95;3.45;;;-5.00;99.90;;;;;;5070987;28;20193;-34
2021/12/21 02:56:03;;;;;;;8.35;3.20;;;-4.90;99.90;;;;;;5071188;28;20040;-34
2021/12/21 02:58:29;;;;;;;8.05;3.65;;;-5.00;99.90;;;;;;5070867;28;20052;-34
2021/12/21 03:00:55;;;;;;;8.90;3.35;;;-5.00;99.90;;;;;;5068954;28;20147;-33
2021/12/21 03:03:21;;;;;;;6.75;3.20;;;-5.00;99.90;;;;;;5070699;28;20398;-34
2021/12/21 03:05:52;;;;;;;11.35;3.42;;;-5.00;99.90;;;;;;5069084;28;20059;-34
2021/12/21 03:08:56;;;;;;;9.98;3.05;;;-5.00;99.90;;;;;;5070866;28;20046;-34
2021/12/21 03:16:18;;;;;;;8.60;3.05;;;-5.10;99.90;;;;;;5069493;28;20067;-34
2021/12/21 03:18:45;;;;;;;10.40;3.05;;;-5.10;99.90;;;;;;5070597;28;20048;-33
2021/12/21 03:21:12;;;;;;;8.75;2.85;;;-5.10;99.90;;;;;;5070769;28;20487;-33
2021/12/21 03:23:38;;;;;;;9.20;2.95;;;-5.10;99.90;;;;;;5069823;28;20491;-34
2021/12/21 03:26:04;;;;;;;12.27;3.00;;;-5.10;99.90;;;;;;5070142;28;20066;-34
2021/12/21 03:28:30;;;;;;;12.73;2.88;;;-5.10;99.90;;;;;;5070480;28;20041;-34
2021/12/21 03:30:56;;;;;;;5.82;2.33;;;-5.10;99.90;;;;;;5070051;28;20044;-34
2021/12/21 03:33:22;;;;;;;7.05;2.30;;;-5.00;99.90;;;;;;5070589;28;20048;-33
2021/12/21 03:35:48;;;;;;;8.98;2.15;;;-5.00;99.90;;;;;;5070134;28;20094;-33
2021/12/21 03:38:14;;;;;;;7.13;2.55;;;-5.00;99.90;;;;;;5070287;28;20486;-33
2021/12/21 03:40:40;;;;;;;7.32;2.90;;;-5.00;99.90;;;;;;5070135;28;20143;-34
2021/12/21 03:43:06;;;;;;;6.78;2.70;;;-5.00;99.90;;;;;;5068835;28;20546;-33
2021/12/21 03:45:37;;;;;;;7.70;2.50;;;-5.20;99.90;;;;;;5070251;28;20115;-34
2021/12/21 03:48:03;;;;;;;8.20;2.42;;;-5.10;99.90;;;;;;5069990;28;20371;-33
2021/12/21 03:50:28;;;;;;;5.30;1.95;;;-5.30;99.90;;;;;;5069795;28;20049;-33
2021/12/21 03:52:54;;;;;;;4.70;1.98;;;-5.30;99.90;;;;;;5069563;28;20453;-33
2021/12/21 03:55:20;;;;;;;6.32;1.98;;;-5.40;99.90;;;;;;5069620;28;20466;-33
2021/12/21 03:57:46;;;;;;;9.23;2.05;;;-5.40;99.90;;;;;;5069657;28;20049;-33
2021/12/21 04:00:15;;;;;;;12.57;1.90;;;-5.40;99.90;;;;;;5068395;28;20478;-34
2021/12/21 04:02:41;;;;;;;10.50;2.88;;;-5.30;99.90;;;;;;5069133;28;20080;-33
2021/12/21 04:05:08;;;;;;;4.55;1.35;;;-5.40;99.90;;;;;;5068352;28;20048;-33
2021/12/21 04:07:33;;;;;;;8.70;2.70;;;-5.30;99.90;;;;;;5069508;28;20045;-34
2021/12/21 04:09:59;;;;;;;9.25;1.75;;;-5.30;99.90;;;;;;5069457;28;20045;-33
2021/12/21 04:12:25;;;;;;;12.00;1.70;;;-5.30;99.90;;;;;;5069706;28;20046;-33
2021/12/21 04:14:52;;;;;;;6.15;1.25;;;-5.20;99.90;;;;;;5069116;28;20143;-33
2021/12/21 04:17:22;;;;;;;4.15;2.15;;;-5.30;99.90;;;;;;5069469;28;20054;-33
2021/12/21 04:19:49;;;;;;;6.60;1.15;;;-5.30;99.90;;;;;;5069452;28;20094;-33
2021/12/21 04:22:16;;;;;;;8.55;1.38;;;-5.30;99.90;;;;;;5069110;28;20047;-33
2021/12/21 04:24:42;;;;;;;10.50;1.35;;;-5.30;99.90;;;;;;5067910;28;20048;-33
2021/12/21 04:27:08;;;;;;;12.77;1.73;;;-5.30;99.90;;;;;;5068764;28;20453;-33
2021/12/21 04:29:34;;;;;;;10.05;2.05;;;-5.30;99.90;;;;;;5069062;28;20055;-33
2021/12/21 04:32:00;;;;;;;4.97;1.30;;;-5.40;99.90;;;;;;5067584;28;20430;-33
2021/12/21 04:34:26;;;;;;;7.40;1.52;;;-5.40;99.90;;;;;;5069019;28;20097;-33
2021/12/21 04:36:51;;;;;;;6.55;1.65;;;-5.30;99.90;;;;;;5068823;28;20444;-34
2021/12/21 04:39:28;;;;;;;8.07;1.98;;;-5.30;99.90;;;;;;5068669;28;20048;-33
2021/12/21 04:41:54;;;;;;;7.15;1.60;;;-5.30;99.90;;;;;;5069115;28;20037;-33
2021/12/21 04:44:20;;;;;;;9.90;1.80;;;-5.30;99.90;;;;;;5069108;28;20043;-33
2021/12/21 04:46:46;;;;;;;8.93;2.88;;;-5.30;99.90;;;;;;5069225;28;20630;-33
2021/12/21 04:49:11;;;;;;;5.68;2.17;;;-5.90;99.90;;;;;;5068956;28;20059;-33
2021/12/21 04:51:37;;;;;;;10.60;2.10;;;-5.30;99.90;;;;;;5058945;28;20056;-33
2021/12/21 04:54:03;;;;;;;5.88;1.60;;;-5.20;99.90;;;;;;5068678;28;20123;-33
2021/12/21 04:56:29;;;;;;;5.70;1.60;;;-5.30;99.90;;;;;;5067259;28;20125;-33
2021/12/21 04:58:54;;;;;;;9.50;1.33;;;-5.40;99.90;;;;;;5068620;28;20079;-33
2021/12/21 05:01:20;;;;;;;10.65;1.52;;;-5.40;99.90;;;;;;5068552;28;20036;-33
2021/12/21 05:03:46;;;;;;;4.88;1.70;;;-5.40;99.90;;;;;;5069128;28;20036;-33
2021/12/21 05:06:13;;;;;;;6.60;1.35;;;-5.50;99.90;;;;;;5068369;28;20152;-33
2021/12/21 05:08:40;;;;;;;8.05;1.58;;;-5.50;99.90;;;;;;5048563;28;20128;-44
2021/12/21 05:11:06;;;;;;;8.75;1.30;;;-5.50;99.90;;;;;;5013398;28;20040;-52
2021/12/21 05:13:38;;;;;;;7.03;1.40;;;-5.60;99.90;;;;;;5060907;28;20049;-51
2021/12/21 05:16:05;;;;;;;7.90;1.75;;;-5.60;99.90;;;;;;5078327;28;20506;-54
2021/12/21 05:18:32;;;;;;;4.63;0.98;;;-5.60;99.90;;;;;;5075921;28;20118;-57
2021/12/21 05:20:59;;;;;;;8.23;1.67;;;-5.70;99.90;;;;;;5073519;28;20135;-53
2021/12/21 05:23:25;;;;;;;7.68;2.33;;;-5.70;99.90;;;;;;5077188;28;20048;-56
2021/12/21 05:25:51;;;;;;;8.57;2.03;;;-5.70;99.90;;;;;;5075546;28;20067;-51
2021/12/21 05:28:17;;;;;;;7.63;1.83;;;-5.70;99.90;;;;;;5074903;28;20044;-51
2021/12/21 05:30:43;;;;;;;6.90;1.90;;;-5.70;99.90;;;;;;5078411;28;20371;-43
2021/12/21 05:33:09;;;;;;;5.70;1.65;;;-5.70;99.90;;;;;;5078643;28;20040;-47
2021/12/21 05:35:36;;;;;;;10.25;1.90;;;-5.80;99.90;;;;;;5077719;28;20036;-41
2021/12/21 05:38:05;;;;;;;4.80;1.83;;;-5.80;99.90;;;;;;5076410;28;20089;-37
2021/12/21 05:40:35;;;;;;;10.05;2.88;;;-5.80;99.90;;;;;;5077722;28;20687;-38
2021/12/21 05:43:02;;;;;;;8.15;2.42;;;-5.80;99.90;;;;;;5079630;28;20507;-37
2021/12/21 05:45:28;;;;;;;14.13;2.60;;;-5.80;99.90;;;;;;5079653;28;20113;-39
2021/12/21 05:47:54;;;;;;;11.85;2.47;;;-5.80;99.90;;;;;;5079834;28;20071;-43
2021/12/21 05:50:20;;;;;;;11.68;2.78;;;-5.90;99.90;;;;;;5078874;28;20058;-46
2021/12/21 05:52:47;;;;;;;8.38;3.33;;;-5.90;99.90;;;;;;5072799;28;20036;-56
2021/12/21 05:55:15;;;;;;;9.27;2.33;;;-5.90;99.90;;;;;;5076099;28;20082;-44
2021/12/21 05:57:41;;;;;;;11.10;2.30;;;-5.90;99.90;;;;;;5077383;28;20049;-43
2021/12/21 06:00:10;;;;;;;7.50;2.13;;;-5.90;99.90;;;;;;5076318;28;20467;-44
2021/12/21 06:02:36;;;;;;;8.95;1.88;;;-5.90;99.90;;;;;;5079511;28;20416;-45
2021/12/21 06:05:02;;;;;;;6.75;1.65;;;-6.00;99.90;;;;;;5067245;28;20037;-34
2021/12/21 06:07:28;;;;;;;11.50;1.83;;;-5.90;99.90;;;;;;5051553;28;20486;-35
2021/12/21 06:09:53;;;;;;;12.15;2.53;;;-6.00;99.90;;;;;;5051409;28;20032;-34
2021/12/21 06:15:11;;;;;;;9.13;1.97;;;-6.00;99.90;;;;;;5051163;28;20040;-34
2021/12/21 06:25:57;;;;;;;7.45;3.15;;;-6.00;99.90;;;;;;5051384;28;20067;-34
2021/12/21 06:28:22;;;;;;;;;;;-6.10;99.90;;;;;;5051756;28;20045;-34
2021/12/21 06:30:49;;;;;;;7.45;2.60;;;-6.00;99.90;;;;;;5051551;28;20385;-34
2021/12/21 06:33:15;;;;;;;5.88;1.67;;;-6.00;99.90;;;;;;5051586;28;20049;-34
2021/12/21 06:35:40;;;;;;;8.27;1.80;;;-6.20;99.90;;;;;;5051412;28;20409;-34
2021/12/21 06:38:07;;;;;;;10.05;2.40;;;-6.10;99.90;;;;;;5050932;28;20408;-34
2021/12/21 06:40:33;;;;;;;6.78;1.30;;;-6.10;99.90;;;;;;5051300;28;20075;-34
2021/12/21 06:43:01;;;;;;;9.07;2.25;;;-6.00;99.90;;;;;;5051450;28;20056;-34
2021/12/21 06:53:25;;;;;;;6.60;2.25;;;-6.10;99.90;;;;;;5051271;28;20393;-34
2021/12/21 06:55:51;;;;;;;8.00;2.70;;;-6.10;99.90;;;;;;5051242;28;20049;-34
2021/12/21 06:58:17;;;;;;;6.28;2.20;;;-6.10;99.90;;;;;;5050702;28;20448;-34
2021/12/21 07:00:43;;;;;;;12.32;2.28;;;-6.10;99.90;;;;;;5055244;28;20044;-34
2021/12/21 07:03:09;;;;;;;4.80;2.30;;;-6.80;99.90;;;;;;5070485;28;20127;-34
2021/12/21 07:05:35;;;;;;;10.93;4.05;;;-6.10;99.90;;;;;;5070753;28;20127;-34
2021/12/21 07:08:01;;;;;;;11.52;3.15;;;-6.10;99.90;;;;;;5070654;28;20074;-34
2021/12/21 07:10:30;;;;;;;7.82;3.90;;;-6.10;99.90;;;;;;5070386;28;20131;-34
2021/12/21 07:18:31;;;;;;;7.90;3.33;;;-6.20;99.90;;;;;;5070408;28;20047;-34
2021/12/21 07:20:59;;;;;;;9.13;3.97;;;-6.20;99.90;;;;;;5070344;28;20044;-34
2021/12/21 07:23:25;;;;;;;12.23;3.75;;;-6.20;99.90;;;;;;5070085;28;20423;-34
2021/12/21 07:25:51;;;;;;;12.45;3.88;;;-6.20;99.90;;;;;;5070022;28;20047;-34
2021/12/21 07:28:17;;;;;;;12.70;4.00;;;-6.20;99.90;;;;;;5070270;28;20483;-34
2021/12/21 07:30:43;;;;;;;11.82;3.38;;;-5.90;99.90;;;;;;5070526;28;20107;-34
2021/12/21 07:33:09;;;;;;;7.80;3.72;;;-6.20;99.90;;;;;;5070163;28;20564;-34
2021/12/21 07:35:34;;;;;;;10.32;3.95;;;-6.20;99.90;;;;;;5070120;28;20076;-34
2021/12/21 07:38:00;;;;;;;7.97;5.07;;;-6.10;99.90;;;;;;5068966;28;20063;-34
2021/12/21 07:40:26;;;;;;;8.88;4.60;;;-6.20;99.90;;;;;;5069824;28;20044;-34
2021/12/21 07:42:52;;;;;;;13.70;5.45;;;-6.10;99.90;;;;;;5069874;28;20049;-34
2021/12/21 07:45:18;;;;;;;10.77;5.22;;;-6.10;99.90;;;;;;5069880;28;20105;-34
2021/12/21 07:47:45;;;;;;;9.27;4.38;;;-6.10;99.90;;;;;;5070105;28;20123;-34
2021/12/21 07:50:11;;;;;;;9.98;4.70;;;-6.10;99.90;;;;;;5070036;28;20032;-34
2021/12/21 07:52:37;;;;;;;9.05;4.65;;;-6.10;99.90;;;;;;5069561;28;20155;-34
2021/12/21 07:55:04;;;;;;;11.23;4.72;;;-6.10;99.90;;;;;;5069767;28;20080;-34
2021/12/21 07:57:31;;;;;;;12.57;5.60;;;-6.10;99.90;;;;;;5069249;28;20490;-34
2021/12/21 07:59:58;;;;;;;11.90;4.75;;;-6.10;99.90;;;;;;5069546;28;20465;-35
2021/12/21 08:02:26;;;;;;;10.10;4.93;;;-6.10;99.90;;;;;;5066610;28;20115;-35
2021/12/21 08:04:52;;;;;;;13.38;5.05;;;-6.20;99.90;;;;;;5069399;28;20117;-35
2021/12/21 08:07:22;;;;;;;13.93;6.43;;;-6.00;99.90;;;;;;5069379;28;20076;-36
2021/12/21 08:09:52;;;;;;;12.05;6.30;;;-5.90;99.90;;;;;;5069246;28;20241;-35
2021/12/21 08:12:18;;;;;;;14.23;5.80;;;-5.90;99.90;;;;;;5069338;28;20040;-35
2021/12/21 08:14:47;;;;;;;14.25;6.53;;;-5.70;99.90;;;;;;5069150;28;20386;-35
2021/12/21 08:17:14;;;;;;;11.32;5.75;;;-5.70;99.90;;;;;;5069219;28;20068;-35
2021/12/21 08:19:40;;;;;;;12.85;5.70;;;-5.70;99.90;;;;;;5068885;28;20608;-35
2021/12/21 08:22:05;;;;;;;11.40;6.03;;;-5.70;99.90;;;;;;5068778;28;20043;-35
2021/12/21 08:24:33;;;;;;;14.52;5.60;;;-5.70;99.90;;;;;;5068830;28;20415;-35
2021/12/21 08:27:00;;;;;;;12.50;5.35;;;-5.70;99.90;;;;;;5069227;28;20127;-35
2021/12/21 08:29:27;;;;;;;10.50;5.03;;;-5.60;99.90;;;;;;5068713;28;20462;-35
2021/12/21 08:31:53;;;;;;;11.70;5.18;;;-5.60;99.90;;;;;;5068734;28;20440;-35
2021/12/21 08:34:19;;;;;;;13.98;5.07;;;-5.60;99.90;;;;;;5068711;28;20482;-35
2021/12/21 08:36:44;;;;;;;9.98;5.18;;;-5.60;99.90;;;;;;5068754;28;20040;-35
2021/12/21 08:39:11;;;;;;;13.23;5.13;;;-5.60;99.90;;;;;;5068810;28;20043;-35
2021/12/21 08:41:41;;;;;;;11.93;6.05;;;-5.60;99.90;;;;;;5067429;28;20513;-35
2021/12/21 08:44:09;;;;;;;11.20;6.28;;;-5.60;99.90;;;;;;5068888;28;20082;-35
2021/12/21 08:46:36;;;;;;;19.92;7.47;;;-5.60;99.90;;;;;;5068849;28;20218;-35
2021/12/21 08:49:01;;;;;;;14.25;7.43;;;-5.50;99.90;;;;;;5068866;28;20436;-35
2021/12/21 08:51:27;;;;;;;12.70;7.75;;;-5.50;99.90;;;;;;5068544;28;20044;-35
2021/12/21 08:53:53;;;;;;;18.80;7.63;;;-5.40;99.90;;;;;;5068722;28;20048;-35
2021/12/21 08:56:18;;;;;;;14.55;6.75;;;-5.30;99.90;;;;;;5068808;28;20044;-35
2021/12/21 08:58:44;;;;;;;12.45;6.78;;;-5.30;99.90;;;;;;5068615;28;20130;-35
2021/12/21 09:01:10;;;;;;;14.23;8.07;;;-5.20;99.90;;;;;;5067718;28;20040;-35
2021/12/21 09:03:37;;;;;;;16.52;7.57;;;-5.20;99.90;;;;;;5068549;28;20576;-35
2021/12/21 09:06:03;;;;;;;18.17;9.15;;;-5.10;99.90;;;;;;5068696;28;20109;-35
2021/12/21 09:08:29;;;;;;;20.15;10.52;;;-4.10;99.90;;;;;;5068519;28;20057;-35
2021/12/21 09:11:02;;;;;;;22.13;9.80;;;-5.00;99.90;;;;;;5068890;28;20111;-35
2021/12/21 09:13:29;;;;;;;21.30;10.30;;;-4.90;99.90;;;;;;5069030;28;20056;-35
2021/12/21 09:15:54;;;;;;;24.55;10.52;;;-4.80;99.90;;;;;;5072830;28;20105;-35
2021/12/21 09:18:20;;;;;;;21.85;10.55;;;-4.80;99.90;;;;;;5072655;28;20040;-35
2021/12/21 09:20:46;;;;;;;20.23;10.38;;;-4.70;99.90;;;;;;5072775;28;20060;-35
2021/12/21 09:23:12;;;;;;;29.85;12.45;;;-4.50;99.90;;;;;;5072766;28;20040;-35
2021/12/21 09:25:38;;;;;;;22.17;13.25;;;-4.30;99.90;;;;;;5072348;28;20047;-36
2021/12/21 09:28:04;;;;;;;24.65;13.07;;;-2.90;99.90;;;;;;5072334;28;20060;-35
2021/12/21 09:30:30;;;;;;;27.95;14.68;;;-3.50;99.90;;;;;;5072605;28;20130;-35
2021/12/21 09:32:57;;;;;;;30.00;15.63;;;-3.20;99.90;;;;;;5072372;28;20154;-35
2021/12/21 09:35:24;;;;;;;25.42;15.00;;;-3.10;99.90;;;;;;5072528;28;20127;-35
2021/12/21 09:37:50;;;;;;;26.17;15.07;;;-3.10;99.90;;;;;;5072498;28;20119;-35
2021/12/21 09:40:20;;;;;;;31.58;16.00;;;-3.10;99.90;;;;;;5071850;28;20150;-35
2021/12/21 09:42:46;;;;;;;29.83;16.17;;;-3.20;99.90;;;;;;5072263;28;20125;-35
2021/12/21 09:45:12;;;;;;;29.52;15.75;;;-3.20;99.90;;;;;;5072753;28;20474;-35
2021/12/21 09:47:38;;;;;;;30.15;16.27;;;-3.20;99.90;;;;;;5071980;28;20036;-35
2021/12/21 09:50:06;;;;;;;28.90;16.30;;;-3.20;99.90;;;;;;5072336;28;20039;-35
2021/12/21 09:52:33;;;;;;;29.77;17.48;;;-3.20;99.90;;;;;;5072612;28;20115;-35
2021/12/21 09:55:00;;;;;;;29.98;17.58;;;-3.20;99.90;;;;;;5072416;28;20110;-35
2021/12/21 09:57:26;;;;;;;30.90;17.73;;;-3.20;99.90;;;;;;5072412;28;20059;-35
2021/12/21 09:59:53;;;;;;;29.95;17.73;;;-3.20;99.90;;;;;;5071834;28;20567;-35
2021/12/21 10:02:22;;;;;;;38.60;19.85;;;-3.10;99.90;;;;;;5070139;28;20409;-35
2021/12/21 10:04:51;;;;;;;35.65;18.30;;;-3.10;99.90;;;;;;5071499;28;20138;-35
2021/12/21 10:07:18;;;;;;;38.63;19.27;;;-3.00;99.90;;;;;;5071965;28;20044;-35
2021/12/21 10:09:47;;;;;;;41.38;20.65;;;-3.00;99.90;;;;;;5071510;28;20051;-35
2021/12/21 10:12:34;;;;;;;39.35;21.63;;;-2.90;99.90;;;;;;5071640;28;20041;-35
2021/12/21 10:15:17;;;;;;;44.90;21.35;;;-2.40;99.90;;;;;;5071201;28;20632;-35
2021/12/21 10:18:00;;;;;;;42.70;22.83;;;-2.60;99.90;;;;;;5071582;28;20051;-35
2021/12/21 10:20:35;;;;;;;40.75;21.42;;;-2.50;99.90;;;;;;5071828;28;20040;-35
2021/12/21 10:23:17;;;;;;;48.08;23.58;;;-2.40;99.90;;;;;;5071061;28;20044;-35
2021/12/21 10:25:52;;;;;;;46.72;25.42;;;-2.30;99.90;;;;;;5070792;28;20045;-35
2021/12/21 10:28:41;;;;;;;48.35;23.58;;;-0.30;99.90;;;;;;5071336;28;20057;-35
2021/12/21 10:31:36;;;;;;;38.88;23.13;;;-2.00;99.90;;;;;;5071543;28;20044;-35
2021/12/21 10:34:09;;;;;;;50.45;24.45;;;-1.90;99.90;;;;;;5066205;28;20087;-35
2021/12/21 10:36:51;;;;;;;46.35;25.20;;;-1.80;99.90;;;;;;5071443;28;20115;-35
2021/12/21 10:39:23;;;;;;;39.38;23.17;;;-1.70;99.90;;;;;;5071401;28;20045;-35
2021/12/21 10:41:51;;;;;;;37.83;20.25;;;-1.60;99.90;;;;;;5071155;28;20539;-35
2021/12/21 10:44:19;;;;;;;40.63;22.92;;;-1.60;99.90;;;;;;5071304;28;20040;-35
2021/12/21 10:46:51;;;;;;;47.97;23.85;;;-1.60;99.90;;;;;;5071340;28;20497;-35
2021/12/21 10:49:21;;;;;;;61.53;29.80;;;-1.60;99.90;;;;;;5070356;28;20127;-35
2021/12/21 10:52:05;;;;;;;49.00;25.50;;;-1.60;99.90;;;;;;5071324;28;20059;-35
2021/12/21 10:54:39;;;;;;;48.03;26.05;;;-1.60;99.90;;;;;;5071153;28;20053;-35
2021/12/21 10:57:15;;;;;;;45.72;25.27;;;-1.60;99.90;;;;;;5070928;28;20272;-35
2021/12/21 10:59:45;;;;;;;50.83;27.02;;;-1.70;99.90;;;;;;5070979;28;20040;-35
2021/12/21 11:02:22;;;;;;;43.10;23.38;;;-1.50;99.90;;;;;;5069032;28;20174;-35
2021/12/21 11:04:53;;;;;;;35.63;22.00;;;-1.50;99.90;;;;;;5070420;28;20048;-35
2021/12/21 11:07:29;;;;;;;44.25;25.35;;;-1.50;99.90;;;;;;5070702;28;20489;-35
2021/12/21 11:10:14;;;;;;;47.40;24.95;;;-1.50;99.90;;;;;;5070520;28;20079;-35
2021/12/21 11:12:44;;;;;;;38.13;22.20;;;-1.40;99.90;;;;;;5071082;28;20051;-35
2021/12/21 11:15:16;;;;;;;39.13;22.35;;;-1.30;99.90;;;;;;5070295;28;20094;-35
2021/12/21 11:17:42;;;;;;;43.13;24.65;;;-1.30;99.90;;;;;;5070534;28;20044;-35
2021/12/21 11:20:11;;;;;;;40.33;24.80;;;-1.30;99.90;;;;;;5070385;28;20061;-35
2021/12/21 11:22:39;;;;;;;43.83;24.23;;;-1.20;99.90;;;;;;5070661;28;20040;-35
2021/12/21 11:25:06;;;;;;;40.28;23.20;;;-1.20;99.90;;;;;;5070522;28;20108;-35
2021/12/21 11:27:37;;;;;;;42.63;22.67;;;-1.20;99.90;;;;;;5070197;28;20045;-35
2021/12/21 11:30:07;;;;;;;36.55;21.88;;;-1.20;99.90;;;;;;5069965;28;20410;-35
2021/12/21 11:32:38;;;;;;;34.88;21.08;;;-1.20;99.90;;;;;;5070134;28;20486;-35
2021/12/21 11:37:43;;;;;;;50.55;24.95;;;-1.00;99.90;;;;;;5069520;28;20131;-35
2021/12/21 11:40:13;;;;;;;42.85;21.67;;;-1.00;99.90;;;;;;5069746;28;20044;-35
2021/12/21 11:42:52;;;;;;;39.25;22.08;;;-0.90;99.90;;;;;;5069949;28;20049;-35
2021/12/21 11:45:27;;;;;;;38.60;24.38;;;-0.90;99.90;;;;;;5069915;28;20049;-35
2021/12/21 11:48:11;;;;;;;44.53;25.38;;;-0.80;99.90;;;;;;5069983;28;20049;-35
2021/12/21 11:50:43;;;;;;;39.75;24.92;;;0.00;99.90;;;;;;5069866;28;20082;-35
2021/12/21 11:53:10;;;;;;;;;;;-0.70;99.90;;;;;;5069968;28;20086;-35
2021/12/21 11:55:39;;;;;;;42.05;24.70;;;-0.70;99.90;;;;;;5069986;28;19998;-35
2021/12/21 11:58:22;;;;;;;43.55;24.35;;;-0.40;99.90;;;;;;5069605;28;20044;-36
2021/12/21 12:00:52;;;;;;;;;;;-0.70;99.90;;;;;;5068648;28;20043;-35
2021/12/21 12:03:22;;;;;;;39.17;21.27;;;-0.60;99.90;;;;;;5069898;28;19924;-35
2021/12/21 12:05:57;;;;;;;47.53;25.77;;;-0.60;99.90;;;;;;5069299;28;20051;-35
2021/12/21 12:08:25;;;;;;;46.72;25.30;;;-0.60;99.90;;;;;;5069777;28;20040;-35
2021/12/21 12:10:57;;;;;;;54.95;27.27;;;-0.80;99.90;;;;;;5069392;28;20510;-35
2021/12/21 12:13:34;;;;;;;40.38;25.00;;;-0.40;99.90;;;;;;5069775;28;20107;-35
2021/12/21 12:16:10;;;;;;;39.88;23.15;;;-0.60;99.90;;;;;;5069297;28;20576;-35
2021/12/21 12:18:44;;;;;;;39.25;22.92;;;-0.60;99.90;;;;;;5069399;28;20055;-35
2021/12/21 12:21:22;;;;;;;44.35;26.05;;;1.20;99.90;;;;;;5069080;28;20081;-35
2021/12/21 12:23:50;;;;;;;44.28;26.45;;;-0.60;99.90;;;;;;5069171;28;20044;-35
2021/12/21 12:26:33;;;;;;;53.92;28.98;;;-0.60;99.90;;;;;;5067210;28;20068;-35
2021/12/21 12:29:12;;;;;;;55.55;30.13;;;-0.50;99.90;;;;;;5069027;28;20135;-35
2021/12/21 12:31:46;;;;;;;55.90;30.00;;;-0.60;99.90;;;;;;5069123;28;20036;-35
2021/12/21 12:34:22;;;;;;;46.92;26.05;;;-0.50;99.90;;;;;;5067742;28;20048;-35
2021/12/21 12:36:53;;;;;;;44.80;26.52;;;-0.50;99.90;;;;;;5069134;28;20048;-35
2021/12/21 12:39:30;;;;;;;54.97;29.33;;;-0.50;99.90;;;;;;5069196;28;20036;-35
2021/12/21 12:42:03;;;;;;;41.50;26.42;;;-0.50;99.90;;;;;;5069209;28;20041;-35
2021/12/21 12:44:29;;;;;;;55.80;28.83;;;-0.50;99.90;;;;;;5069400;28;20112;-35
2021/12/21 12:46:58;;;;;;;55.28;31.08;;;-0.50;99.90;;;;;;5069393;28;20049;-35
2021/12/21 12:49:29;;;;;;;47.67;26.88;;;-0.40;99.90;;;;;;5069261;28;20102;-35
2021/12/21 12:52:15;;;;;;;50.70;28.65;;;-0.40;99.90;;;;;;5069343;28;20045;-35
2021/12/21 12:54:57;;;;;;;45.53;29.70;;;-0.40;99.90;;;;;;5068924;28;20079;-35
2021/12/21 12:57:50;;;;;;;53.10;29.60;;;-0.40;99.90;;;;;;5067998;28;20098;-35
2021/12/21 13:00:36;;;;;;;51.55;30.13;;;-0.40;99.90;;;;;;5062269;28;20051;-35
2021/12/21 13:03:08;;;;;;;51.30;30.42;;;-0.40;99.90;;;;;;5068542;28;20063;-35
2021/12/21 13:05:43;;;;;;;56.72;32.33;;;-0.40;99.90;;;;;;5069192;28;20039;-35
2021/12/21 13:08:17;;;;;;;43.05;27.75;;;-0.40;99.90;;;;;;5068792;28;20049;-36
2021/12/21 13:10:46;;;;;;;47.05;29.42;;;-0.40;99.90;;;;;;5068852;28;20044;-35
2021/12/21 13:13:13;;;;;;;48.70;29.42;;;-0.40;99.90;;;;;;5069111;28;20435;-35
2021/12/21 13:15:41;;;;;;;58.40;31.73;;;-0.30;99.90;;;;;;5069037;28;20044;-35
2021/12/21 13:18:12;;;;;;;54.25;29.92;;;-0.40;99.90;;;;;;5068769;28;20052;-35
2021/12/21 13:20:39;;;;;;;54.42;30.63;;;-0.40;99.90;;;;;;5069060;28;20135;-35
2021/12/21 13:23:13;;;;;;;55.20;31.65;;;-0.40;99.90;;;;;;5068814;28;20040;-35
2021/12/21 13:25:40;;;;;;;47.53;29.08;;;-0.40;99.90;;;;;;5068695;28;20517;-35
2021/12/21 13:28:13;;;;;;;55.45;30.33;;;-0.40;99.90;;;;;;5068607;28;20091;-35
2021/12/21 13:30:47;;;;;;;53.35;32.75;;;-0.30;99.90;;;;;;5068640;28;20053;-35
2021/12/21 13:33:27;;;;;;;59.50;33.80;;;-0.10;99.90;;;;;;5068434;28;20439;-35
2021/12/21 13:35:56;;;;;;;50.42;27.85;;;-0.30;99.90;;;;;;5068553;28;20785;-35
2021/12/21 13:38:25;;;;;;;44.58;28.90;;;-0.30;99.90;;;;;;5068370;28;20055;-35
2021/12/21 13:41:09;;;;;;;49.13;30.65;;;-0.30;99.90;;;;;;5068531;28;20044;-35
2021/12/21 13:43:39;;;;;;;57.53;32.17;;;-0.30;99.90;;;;;;5068655;28;20048;-35
2021/12/21 13:46:07;;;;;;;50.00;30.40;;;-0.30;99.90;;;;;;5068680;28;20040;-35
2021/12/21 13:48:34;;;;;;;57.85;32.95;;;-0.30;99.90;;;;;;5068873;28;20040;-35
2021/12/21 13:51:15;;;;;;;64.63;34.40;;;-0.40;99.90;;;;;;5067473;28;20036;-35
2021/12/21 13:53:47;;;;;;;48.03;30.05;;;-0.40;99.90;;;;;;5068824;28;20041;-35
2021/12/21 13:56:16;;;;;;;46.90;27.23;;;-0.40;99.90;;;;;;5068267;28;20044;-36